createdAt,value
2023-05-15T00:01:58.669Z,26.60
2023-05-15T00:04:28.593Z,26.70
2023-05-15T00:06:58.630Z,26.70
2023-05-15T00:09:28.414Z,26.80
2023-05-15T00:11:59.261Z,26.90
2023-05-15T00:14:29.593Z,26.90
2023-05-15T00:16:59.719Z,27.00
2023-05-15T00:19:30.256Z,26.90
2023-05-15T00:22:00.035Z,26.90
2023-05-15T00:24:29.966Z,26.90
2023-05-15T00:27:01.434Z,27.00
2023-05-15T00:29:33.346Z,27.00
2023-05-15T00:32:03.261Z,27.00
2023-05-15T00:34:33.413Z,27.00
2023-05-15T00:37:03.954Z,27.00
2023-05-15T00:39:34.774Z,27.00
2023-05-15T00:42:07.105Z,27.10
2023-05-15T00:44:38.068Z,27.10
2023-05-15T00:47:09.344Z,27.10
2023-05-15T00:49:39.980Z,27.10
2023-05-15T00:52:10.775Z,27.30
2023-05-15T00:54:41.762Z,27.30
2023-05-15T00:57:12.789Z,27.40
2023-05-15T00:59:43.925Z,27.50
2023-05-15T01:02:15.972Z,27.60
2023-05-15T01:04:46.236Z,27.80
2023-05-15T01:07:17.606Z,27.80
2023-05-15T01:09:51.636Z,27.80
2023-05-15T01:12:25.538Z,27.90
2023-05-15T01:14:56.388Z,28.00
2023-05-15T01:17:26.832Z,27.90
2023-05-15T01:19:58.762Z,28.00
2023-05-15T01:22:47.267Z,28.10
2023-05-15T01:25:55.664Z,28.10
2023-05-15T01:28:33.660Z,28.20
2023-05-15T01:31:12.961Z,28.30
2023-05-15T01:33:48.715Z,28.30
2023-05-15T01:36:35.144Z,28.40
2023-05-15T01:39:07.615Z,28.50
2023-05-15T01:41:59.032Z,28.60
2023-05-15T01:44:35.982Z,28.70
2023-05-15T01:47:16.856Z,28.80
2023-05-15T01:49:48.144Z,28.80
2023-05-15T01:52:26.828Z,29.00
2023-05-15T01:54:58.388Z,29.10
2023-05-15T01:57:30.447Z,29.10
2023-05-15T02:00:01.787Z,29.10
2023-05-15T02:02:34.397Z,29.10
2023-05-15T02:05:06.461Z,29.20
2023-05-15T02:07:37.676Z,29.30
2023-05-15T02:10:10.514Z,29.30
2023-05-15T02:12:43.635Z,29.50
2023-05-15T02:15:15.438Z,29.60
2023-05-15T02:17:45.627Z,29.70
2023-05-15T02:20:16.388Z,29.80
2023-05-15T02:22:46.547Z,29.80
2023-05-15T02:25:17.903Z,29.80
2023-05-15T02:27:58.341Z,29.90
2023-05-15T02:30:50.397Z,30.10
2023-05-15T02:33:47.680Z,30.30
2023-05-15T02:36:25.773Z,30.30
2023-05-15T02:38:57.695Z,30.40
2023-05-15T02:41:28.622Z,30.60
2023-05-15T02:43:59.519Z,30.60
2023-05-15T02:46:30.544Z,30.50
2023-05-15T02:49:03.350Z,30.70
2023-05-15T02:51:34.452Z,30.60
2023-05-15T02:54:05.315Z,30.60
2023-05-15T02:56:35.687Z,30.80
2023-05-15T02:59:05.834Z,30.90
2023-05-15T03:01:36.103Z,30.90
2023-05-15T03:04:06.302Z,30.80
2023-05-15T03:06:36.498Z,30.80
2023-05-15T03:09:06.798Z,30.80
2023-05-15T03:11:37.496Z,31.00
2023-05-15T03:14:07.883Z,31.00
2023-05-15T03:16:40.208Z,30.80
2023-05-15T03:19:13.310Z,31.00
2023-05-15T03:21:44.020Z,31.20
2023-05-15T03:24:14.111Z,31.30
2023-05-15T03:26:44.383Z,31.40
2023-05-15T03:29:15.288Z,31.60
2023-05-15T03:31:45.403Z,31.70
2023-05-15T03:34:15.378Z,31.70
2023-05-15T03:36:45.697Z,31.70
2023-05-15T03:39:15.921Z,31.70
2023-05-15T03:41:46.480Z,31.80
2023-05-15T03:44:16.288Z,31.90
2023-05-15T03:46:46.966Z,32.20
2023-05-15T03:49:17.342Z,32.20
2023-05-15T03:51:47.351Z,32.20
2023-05-15T03:54:17.804Z,32.30
2023-05-15T03:56:48.014Z,32.20
2023-05-15T03:59:18.630Z,31.90
2023-05-15T04:02:02.834Z,32.00
2023-05-15T04:04:34.215Z,32.40
2023-05-15T04:07:04.724Z,32.00
2023-05-15T04:09:34.752Z,32.20
2023-05-15T04:12:04.501Z,32.50
2023-05-15T04:14:34.406Z,32.60
2023-05-15T04:17:04.511Z,32.70
2023-05-15T04:19:34.858Z,33.00
2023-05-15T04:22:05.126Z,33.00
2023-05-15T04:24:35.610Z,33.20
2023-05-15T04:27:05.850Z,33.30
2023-05-15T04:29:36.334Z,32.90
2023-05-15T04:32:06.361Z,32.80
2023-05-15T04:34:37.100Z,33.00
2023-05-15T04:37:07.817Z,33.20
2023-05-15T04:39:37.670Z,33.40
2023-05-15T04:42:08.036Z,33.50
2023-05-15T04:44:38.196Z,33.50
2023-05-15T04:47:08.198Z,33.30
2023-05-15T04:49:38.280Z,33.20
2023-05-15T04:52:08.074Z,33.50
2023-05-15T04:54:39.044Z,33.70
2023-05-15T04:57:12.012Z,33.90
2023-05-15T04:59:42.392Z,33.80
2023-05-15T05:02:12.818Z,34.00
2023-05-15T05:04:46.854Z,34.20
2023-05-15T05:07:17.440Z,34.30
2023-05-15T05:09:47.376Z,34.00
2023-05-15T05:12:17.429Z,33.90
2023-05-15T05:14:47.327Z,34.20
2023-05-15T05:17:17.556Z,34.20
2023-05-15T05:19:47.367Z,33.90
2023-05-15T05:22:17.554Z,34.10
2023-05-15T05:24:47.428Z,34.10
2023-05-15T05:27:17.862Z,34.10
2023-05-15T05:29:48.013Z,34.30
2023-05-15T05:32:18.353Z,34.20
2023-05-15T05:34:48.172Z,34.10
2023-05-15T05:37:18.675Z,34.10
2023-05-15T05:39:48.649Z,33.80
2023-05-15T05:42:18.706Z,33.70
2023-05-15T05:44:48.576Z,33.50
2023-05-15T05:47:19.288Z,33.60
2023-05-15T05:49:52.401Z,34.00
2023-05-15T05:52:22.805Z,34.00
2023-05-15T05:54:52.671Z,34.10
2023-05-15T05:57:23.181Z,34.40
2023-05-15T05:59:53.678Z,34.30
2023-05-15T06:02:24.038Z,34.50
2023-05-15T06:04:57.579Z,34.80
2023-05-15T06:07:30.706Z,34.80
2023-05-15T06:10:03.227Z,34.50
2023-05-15T06:12:33.531Z,34.40
2023-05-15T06:15:03.713Z,34.50
2023-05-15T06:17:33.762Z,34.20
2023-05-15T06:20:03.978Z,34.30
2023-05-15T06:25:20.648Z,34.30
2023-05-15T06:27:50.501Z,34.40
2023-05-15T06:30:20.561Z,34.60
2023-05-15T06:32:50.409Z,34.80
2023-05-15T06:35:20.623Z,34.90
2023-05-15T06:37:52.293Z,35.10
2023-05-15T06:40:23.355Z,35.20
2023-05-15T06:42:53.537Z,34.90
2023-05-15T06:45:23.525Z,35.20
2023-05-15T06:47:53.921Z,35.30
2023-05-15T06:50:24.328Z,35.30
2023-05-15T06:52:54.624Z,35.20
2023-05-15T06:55:24.732Z,35.20
2023-05-15T06:57:55.106Z,35.20
2023-05-15T07:00:24.985Z,35.50
2023-05-15T07:02:55.119Z,35.50
2023-05-15T07:05:25.396Z,35.60
2023-05-15T07:07:56.413Z,35.50
2023-05-15T07:10:26.863Z,35.50
2023-05-15T07:12:57.385Z,35.60
2023-05-15T07:15:27.709Z,35.70
2023-05-15T07:17:57.921Z,35.40
2023-05-15T07:20:30.997Z,35.60
2023-05-15T07:23:02.664Z,35.50
2023-05-15T07:25:32.742Z,35.50
2023-05-15T07:28:03.032Z,35.40
2023-05-15T07:30:32.870Z,35.70
2023-05-15T07:33:02.999Z,35.50
2023-05-15T07:35:32.874Z,35.50
2023-05-15T07:38:03.212Z,35.40
2023-05-15T07:40:33.273Z,35.30
2023-05-15T07:43:03.300Z,35.00
2023-05-15T07:45:33.167Z,35.20
2023-05-15T07:48:22.315Z,35.60
2023-05-15T07:50:53.886Z,35.70
2023-05-15T07:53:24.073Z,35.90
2023-05-15T07:55:54.884Z,35.90
2023-05-15T07:58:25.742Z,35.80
2023-05-15T08:00:55.984Z,35.50
2023-05-15T08:03:26.493Z,35.30
2023-05-15T08:05:56.340Z,34.90
2023-05-15T08:08:26.450Z,34.80
2023-05-15T08:10:56.308Z,34.80
2023-05-15T08:13:26.888Z,34.70
2023-05-15T08:15:56.809Z,34.70
2023-05-15T08:18:26.960Z,34.70
2023-05-15T08:20:57.128Z,34.70
2023-05-15T08:23:27.665Z,35.00
2023-05-15T08:25:57.509Z,35.20
2023-05-15T08:28:27.529Z,35.40
2023-05-15T08:30:57.819Z,35.40
2023-05-15T08:33:28.079Z,35.50
2023-05-15T08:35:57.982Z,35.60
2023-05-15T08:38:29.103Z,35.70
2023-05-15T08:41:04.504Z,35.70
2023-05-15T08:43:37.874Z,35.80
2023-05-15T08:46:09.216Z,35.80
2023-05-15T08:48:42.379Z,35.90
2023-05-15T08:51:13.865Z,35.90
2023-05-15T08:53:44.349Z,35.90
2023-05-15T08:56:15.042Z,35.80
2023-05-15T08:58:46.670Z,35.30
2023-05-15T09:01:17.893Z,35.20
2023-05-15T09:03:48.817Z,35.20
2023-05-15T09:06:19.463Z,35.20
2023-05-15T09:08:50.651Z,35.20
2023-05-15T09:11:21.305Z,35.20
2023-05-15T09:13:51.480Z,35.20
2023-05-15T09:16:23.481Z,35.10
2023-05-15T09:18:55.386Z,35.20
2023-05-15T09:21:29.128Z,35.30
2023-05-15T09:24:25.524Z,35.30
2023-05-15T09:27:08.864Z,35.10
2023-05-15T09:29:40.781Z,35.10
2023-05-15T09:32:14.036Z,35.00
2023-05-15T09:34:46.178Z,34.90
2023-05-15T09:37:35.315Z,34.90
2023-05-15T09:40:15.263Z,35.00
2023-05-15T09:42:53.123Z,35.10
2023-05-15T09:45:23.523Z,35.20
2023-05-15T09:47:53.585Z,35.20
2023-05-15T09:50:26.239Z,35.20
2023-05-15T09:52:56.880Z,35.20
2023-05-15T09:55:27.254Z,35.20
2023-05-15T09:58:08.571Z,35.20
2023-05-15T10:00:48.658Z,35.10
2023-05-15T10:03:22.465Z,35.10
2023-05-15T10:05:53.443Z,35.10
2023-05-15T10:08:31.182Z,35.10
2023-05-15T10:11:06.588Z,35.10
2023-05-15T10:13:39.486Z,35.20
2023-05-15T10:16:09.929Z,35.20
2023-05-15T10:18:43.525Z,35.20
2023-05-15T10:21:15.834Z,35.20
2023-05-15T10:23:48.291Z,35.20
2023-05-15T10:26:26.135Z,35.10
2023-05-15T10:28:57.263Z,35.10
2023-05-15T10:31:28.575Z,35.00
2023-05-15T10:33:59.037Z,35.00
2023-05-15T10:36:30.860Z,34.80
2023-05-15T10:39:03.209Z,34.80
2023-05-15T10:41:41.095Z,34.70
2023-05-15T10:44:12.302Z,34.70
2023-05-15T10:46:43.083Z,34.70
2023-05-15T10:49:13.412Z,34.60
2023-05-15T10:51:45.084Z,34.60
2023-05-15T10:54:16.060Z,34.60
2023-05-15T10:56:46.164Z,34.50
2023-05-15T10:59:16.787Z,34.40
2023-05-15T11:01:47.360Z,34.40
2023-05-15T11:04:19.270Z,34.30
2023-05-15T11:06:51.009Z,34.20
2023-05-15T11:09:40.484Z,34.20
2023-05-15T11:12:15.475Z,34.20
2023-05-15T11:15:06.415Z,34.10
2023-05-15T11:17:36.698Z,34.10
2023-05-15T11:20:06.899Z,34.10
2023-05-15T11:22:37.886Z,34.00
2023-05-15T11:25:11.577Z,33.90
2023-05-15T11:27:49.280Z,33.90
2023-05-15T11:30:24.254Z,33.90
2023-05-15T11:33:12.801Z,33.80
2023-05-15T11:35:48.769Z,33.70
2023-05-15T11:38:26.440Z,33.70
2023-05-15T11:40:59.840Z,33.60
2023-05-15T11:43:33.189Z,33.40
2023-05-15T11:46:10.985Z,33.40
2023-05-15T11:48:46.169Z,33.30
2023-05-15T11:51:28.477Z,33.30
2023-05-15T11:53:59.875Z,33.30
2023-05-15T11:56:30.773Z,33.20
2023-05-15T11:59:02.754Z,33.10
2023-05-15T12:01:49.216Z,33.10
2023-05-15T12:04:20.428Z,33.10
2023-05-15T12:06:51.053Z,33.10
2023-05-15T12:09:23.156Z,32.90
2023-05-15T12:11:57.709Z,32.70
2023-05-15T12:14:31.967Z,32.70
2023-05-15T12:17:07.561Z,32.80
2023-05-15T12:19:39.020Z,32.60
2023-05-15T12:22:10.017Z,32.70
2023-05-15T12:24:44.032Z,32.60
2023-05-15T12:27:15.648Z,32.60
2023-05-15T12:29:45.931Z,32.60
2023-05-15T12:32:16.042Z,32.50
2023-05-15T12:34:46.359Z,32.50
2023-05-15T12:37:16.517Z,32.50
2023-05-15T12:40:14.285Z,32.50
2023-05-15T12:42:46.194Z,32.50
2023-05-15T12:45:18.938Z,32.50
2023-05-15T12:47:51.114Z,32.50
2023-05-15T12:50:25.898Z,32.50
2023-05-15T12:52:58.463Z,32.40
2023-05-15T12:55:37.587Z,32.30
2023-05-15T12:58:10.281Z,32.40
2023-05-15T13:00:43.259Z,32.20
2023-05-15T13:03:15.330Z,32.10
2023-05-15T13:05:47.971Z,32.10
2023-05-15T13:08:20.412Z,32.10
2023-05-15T13:10:58.011Z,32.10
2023-05-15T13:13:51.913Z,32.00
2023-05-15T13:16:26.102Z,32.00
2023-05-15T13:18:57.497Z,31.90
2023-05-15T13:21:28.180Z,31.90
2023-05-15T13:23:59.274Z,31.90
2023-05-15T13:26:32.137Z,31.70
2023-05-15T13:29:03.221Z,31.80
2023-05-15T13:31:34.282Z,31.70
2023-05-15T13:34:04.722Z,31.80
2023-05-15T13:36:34.660Z,31.70
2023-05-15T13:39:05.431Z,31.60
2023-05-15T13:41:35.499Z,31.60
2023-05-15T13:44:06.048Z,31.70
2023-05-15T13:46:36.392Z,31.50
2023-05-15T13:49:07.564Z,31.60
2023-05-15T13:51:38.020Z,31.50
2023-05-15T13:54:07.974Z,31.50
2023-05-15T13:56:37.941Z,31.40
2023-05-15T13:59:07.710Z,31.40
2023-05-15T14:01:37.709Z,31.20
2023-05-15T14:04:07.457Z,31.20
2023-05-15T14:06:37.594Z,31.30
2023-05-15T14:09:08.856Z,31.30
2023-05-15T14:11:39.019Z,31.30
2023-05-15T14:14:09.013Z,31.10
2023-05-15T14:16:38.925Z,31.00
2023-05-15T14:19:08.887Z,30.90
2023-05-15T14:21:43.182Z,30.90
2023-05-15T14:24:13.075Z,30.90
2023-05-15T14:26:42.893Z,30.80
2023-05-15T14:29:13.823Z,30.80
2023-05-15T14:31:45.253Z,30.80
2023-05-15T14:34:16.222Z,30.90
2023-05-15T14:36:47.839Z,30.90
2023-05-15T14:39:18.728Z,30.80
2023-05-15T14:41:49.116Z,30.70
2023-05-15T14:44:19.339Z,30.80
2023-05-15T14:46:49.210Z,30.70
2023-05-15T14:49:19.123Z,30.60
2023-05-15T14:51:48.924Z,30.50
2023-05-15T14:54:19.997Z,30.50
2023-05-15T14:56:51.117Z,30.50
2023-05-15T14:59:21.272Z,30.50
2023-05-15T15:01:51.134Z,30.50
2023-05-15T15:04:21.274Z,30.50
2023-05-15T15:06:51.424Z,30.40
2023-05-15T15:09:21.780Z,30.40
2023-05-15T15:11:51.766Z,30.40
2023-05-15T15:14:22.233Z,30.30
2023-05-15T15:16:52.200Z,30.30
2023-05-15T15:19:22.600Z,30.20
2023-05-15T15:21:53.154Z,30.20
2023-05-15T15:24:24.951Z,30.10
2023-05-15T15:26:55.075Z,30.20
2023-05-15T15:29:25.003Z,30.30
2023-05-15T15:31:55.608Z,30.30
2023-05-15T15:34:26.324Z,30.20
2023-05-15T15:36:56.157Z,30.20
2023-05-15T15:39:26.789Z,30.10
2023-05-15T15:41:56.636Z,30.10
2023-05-15T15:44:27.010Z,30.10
2023-05-15T15:46:57.214Z,30.10
2023-05-15T15:49:27.200Z,30.10
2023-05-15T15:51:57.420Z,30.00
2023-05-15T15:54:27.631Z,29.90
2023-05-15T15:56:57.834Z,29.90
2023-05-15T15:59:27.737Z,29.90
2023-05-15T16:01:58.203Z,29.90
2023-05-15T16:04:28.528Z,29.90
2023-05-15T16:06:58.357Z,29.80
2023-05-15T16:09:30.238Z,29.90
2023-05-15T16:12:01.027Z,29.80
2023-05-15T16:14:32.980Z,29.80
2023-05-15T16:17:04.848Z,29.70
2023-05-15T16:19:37.769Z,29.70
2023-05-15T16:22:07.932Z,29.70
2023-05-15T16:24:38.806Z,29.70
2023-05-15T16:28:09.282Z,29.70
2023-05-15T16:31:03.189Z,29.60
2023-05-15T16:33:34.035Z,29.60
2023-05-15T16:36:06.572Z,29.50
2023-05-15T16:38:36.830Z,29.60
2023-05-15T16:41:06.970Z,29.60
2023-05-15T16:43:39.807Z,29.70
2023-05-15T16:46:10.014Z,29.70
2023-05-15T16:48:39.948Z,29.70
2023-05-15T16:51:10.775Z,29.70
2023-05-15T16:53:41.414Z,29.70
2023-05-15T16:56:14.167Z,29.60
2023-05-15T16:58:44.611Z,29.60
2023-05-15T17:01:14.707Z,29.60
2023-05-15T17:03:46.375Z,29.60
2023-05-15T17:06:16.664Z,29.50
2023-05-15T17:08:47.693Z,29.50
2023-05-15T17:11:17.894Z,29.50
2023-05-15T17:13:47.836Z,29.50
2023-05-15T17:16:18.171Z,29.60
2023-05-15T17:18:48.041Z,29.50
2023-05-15T17:21:18.151Z,29.50
2023-05-15T17:23:48.108Z,29.50
2023-05-15T17:26:18.301Z,29.40
2023-05-15T17:28:48.250Z,29.40
2023-05-15T17:31:18.370Z,29.40
2023-05-15T17:33:49.159Z,29.50
2023-05-15T17:36:19.501Z,29.40
2023-05-15T17:38:49.338Z,29.50
2023-05-15T17:41:19.360Z,29.40
2023-05-15T17:43:50.916Z,29.30
2023-05-15T17:46:21.248Z,29.20
2023-05-15T17:48:51.079Z,29.20
2023-05-15T17:51:21.394Z,29.30
2023-05-15T17:53:51.559Z,29.30
2023-05-15T17:56:21.636Z,29.40
2023-05-15T17:58:51.875Z,29.40
2023-05-15T18:01:23.525Z,29.40
2023-05-15T18:03:54.332Z,29.40
2023-05-15T18:06:25.038Z,29.30
2023-05-15T18:08:55.453Z,29.30
2023-05-15T18:11:26.591Z,29.20
2023-05-15T18:13:56.994Z,29.10
2023-05-15T18:16:27.552Z,29.20
2023-05-15T18:18:58.018Z,29.30
2023-05-15T18:21:28.134Z,29.20
2023-05-15T18:23:57.915Z,29.20
2023-05-15T18:26:30.644Z,29.20
2023-05-15T18:29:00.825Z,29.20
2023-05-15T18:31:30.749Z,29.10
2023-05-15T18:34:02.380Z,29.10
2023-05-15T18:36:32.492Z,29.10
2023-05-15T18:39:02.852Z,29.10
2023-05-15T18:41:33.181Z,29.10
2023-05-15T18:44:02.983Z,29.00
2023-05-15T18:46:33.215Z,29.00
2023-05-15T18:49:03.164Z,28.90
2023-05-15T18:51:33.505Z,29.00
2023-05-15T18:54:03.572Z,28.90
2023-05-15T18:56:33.755Z,28.80
2023-05-15T18:59:03.616Z,28.80
2023-05-15T19:01:33.978Z,28.60
2023-05-15T19:04:05.370Z,28.30
2023-05-15T19:06:35.921Z,28.20
2023-05-15T19:09:06.402Z,28.40
2023-05-15T19:11:36.718Z,28.60
2023-05-15T19:14:06.586Z,28.70
2023-05-15T19:16:37.146Z,28.80
2023-05-15T19:19:07.904Z,28.80
2023-05-15T19:21:39.997Z,28.70
2023-05-15T19:24:10.944Z,28.60
2023-05-15T19:26:41.441Z,28.40
2023-05-15T19:29:12.036Z,28.30
2023-05-15T19:31:42.559Z,28.20
2023-05-15T19:34:12.452Z,28.30
2023-05-15T19:36:42.579Z,28.30
2023-05-15T19:39:12.518Z,28.10
2023-05-15T19:41:42.628Z,28.20
2023-05-15T19:44:12.828Z,28.30
2023-05-15T19:46:43.357Z,28.50
2023-05-15T19:49:14.182Z,28.40
2023-05-15T19:51:44.470Z,28.40
2023-05-15T19:54:14.646Z,28.40
2023-05-15T19:56:44.688Z,28.40
2023-05-15T19:59:14.610Z,28.40
2023-05-15T20:01:44.912Z,28.40
2023-05-15T20:04:15.531Z,28.40
2023-05-15T20:06:46.785Z,28.30
2023-05-15T20:09:17.002Z,27.90
2023-05-15T20:11:47.171Z,28.00
2023-05-15T20:14:17.463Z,28.20
2023-05-15T20:16:47.390Z,28.30
2023-05-15T20:19:18.529Z,28.30
2023-05-15T20:21:48.849Z,28.20
2023-05-15T20:24:19.571Z,27.80
2023-05-15T20:26:50.187Z,27.70
2023-05-15T20:29:20.675Z,27.70
2023-05-15T20:31:50.623Z,27.70
2023-05-15T20:34:20.873Z,27.90
2023-05-15T20:36:54.138Z,28.00
2023-05-15T20:39:24.421Z,28.10
2023-05-15T20:41:54.168Z,28.20
2023-05-15T20:44:24.625Z,28.20
2023-05-15T20:46:54.495Z,28.20
2023-05-15T20:49:25.277Z,28.20
2023-05-15T20:51:55.734Z,28.10
2023-05-15T20:54:25.820Z,27.90
2023-05-15T20:56:56.573Z,28.00
2023-05-15T20:59:26.947Z,28.00
2023-05-15T21:01:57.652Z,27.90
2023-05-15T21:04:28.208Z,28.00
2023-05-15T21:06:58.942Z,27.90
2023-05-15T21:09:28.810Z,27.80
2023-05-15T21:11:58.896Z,27.80
2023-05-15T21:14:28.821Z,27.90
2023-05-15T21:16:59.267Z,27.90
2023-05-15T21:19:29.235Z,27.90
2023-05-15T21:21:59.252Z,28.00
2023-05-15T21:24:29.153Z,28.00
2023-05-15T21:26:59.339Z,28.00
2023-05-15T21:29:29.183Z,27.90
2023-05-15T21:31:59.816Z,27.80
2023-05-15T21:34:29.762Z,27.70
2023-05-15T21:37:00.375Z,27.60
2023-05-15T21:39:30.249Z,27.50
2023-05-15T21:42:00.528Z,27.50
2023-05-15T21:44:30.450Z,27.60
2023-05-15T21:47:00.789Z,27.70
2023-05-15T21:49:30.638Z,27.60
2023-05-15T21:52:00.791Z,27.60
2023-05-15T21:54:30.881Z,27.70
2023-05-15T21:57:01.119Z,27.80
2023-05-15T21:59:31.073Z,27.70
2023-05-15T22:02:01.095Z,27.70
2023-05-15T22:04:31.839Z,27.70
2023-05-15T22:07:02.316Z,27.70
2023-05-15T22:09:32.211Z,27.50
2023-05-15T22:12:02.276Z,27.30
2023-05-15T22:14:35.194Z,27.20
2023-05-15T22:17:05.806Z,27.20
2023-05-15T22:19:36.097Z,27.20
2023-05-15T22:22:06.563Z,27.30
2023-05-15T22:24:37.042Z,27.20
2023-05-15T22:27:07.381Z,27.30
2023-05-15T22:29:37.221Z,27.40
2023-05-15T22:32:07.976Z,27.50
2023-05-15T22:34:38.589Z,27.50
2023-05-15T22:37:08.386Z,27.40
2023-05-15T22:39:38.344Z,27.40
2023-05-15T22:42:09.052Z,27.50
2023-05-15T22:44:39.252Z,27.50
2023-05-15T22:47:09.183Z,27.50
2023-05-15T22:49:39.587Z,27.50
2023-05-15T22:52:10.627Z,27.50
2023-05-15T22:54:42.520Z,27.40
2023-05-15T22:57:12.525Z,27.20
2023-05-15T22:59:46.125Z,27.20
2023-05-15T23:02:16.195Z,27.30
2023-05-15T23:04:46.965Z,27.40
2023-05-15T23:07:19.079Z,27.30
2023-05-15T23:09:49.426Z,27.40
2023-05-15T23:12:19.622Z,27.30
2023-05-15T23:14:49.864Z,27.20
2023-05-15T23:17:19.617Z,27.30
2023-05-15T23:19:50.073Z,27.30
2023-05-15T23:22:20.608Z,27.40
2023-05-15T23:24:50.661Z,27.50
2023-05-15T23:27:20.907Z,27.40
2023-05-15T23:29:51.072Z,27.50
2023-05-15T23:32:21.286Z,27.50
2023-05-15T23:34:51.131Z,27.40
2023-05-15T23:37:21.148Z,27.60
2023-05-15T23:39:51.036Z,27.60
2023-05-15T23:42:21.143Z,27.60
2023-05-15T23:44:52.971Z,27.70
2023-05-15T23:47:23.223Z,27.80
2023-05-15T23:49:52.991Z,27.80
2023-05-15T23:52:22.987Z,27.80
2023-05-15T23:54:53.446Z,27.80
2023-05-15T23:57:23.997Z,27.90
2023-05-15T23:59:54.331Z,27.90
